sensor_id;sensor_type;location;lat;lon;timestamp;P1;durP1;ratioP1;P2;durP2;ratioP2
59105;SDS011;44891;50.204;8.132;2023-10-19T00:00:36;15.98;;;12.48;;
59105;SDS011;44891;50.204;8.132;2023-10-19T00:04:41;16.83;;;12.52;;
59105;SDS011;44891;50.204;8.132;2023-10-19T00:08:43;16.42;;;12.07;;
59105;SDS011;44891;50.204;8.132;2023-10-19T00:12:45;17.45;;;12.52;;
59105;SDS011;44891;50.204;8.132;2023-10-19T00:16:57;16.45;;;12.23;;
59105;SDS011;44891;50.204;8.132;2023-10-19T00:21:07;17.80;;;13.68;;
59105;SDS011;44891;50.204;8.132;2023-10-19T00:25:20;22.52;;;15.60;;
59105;SDS011;44891;50.204;8.132;2023-10-19T00:29:24;23.10;;;15.82;;
59105;SDS011;44891;50.204;8.132;2023-10-19T00:33:33;17.88;;;12.65;;
59105;SDS011;44891;50.204;8.132;2023-10-19T00:37:40;17.30;;;12.77;;
59105;SDS011;44891;50.204;8.132;2023-10-19T00:41:44;18.92;;;13.20;;
59105;SDS011;44891;50.204;8.132;2023-10-19T00:45:47;19.63;;;13.35;;
59105;SDS011;44891;50.204;8.132;2023-10-19T00:49:52;23.98;;;15.45;;
59105;SDS011;44891;50.204;8.132;2023-10-19T00:53:58;22.60;;;14.73;;
59105;SDS011;44891;50.204;8.132;2023-10-19T00:58:09;27.00;;;16.55;;
59105;SDS011;44891;50.204;8.132;2023-10-19T01:02:15;27.27;;;15.82;;
59105;SDS011;44891;50.204;8.132;2023-10-19T01:06:29;22.80;;;14.85;;
59105;SDS011;44891;50.204;8.132;2023-10-19T01:10:34;22.52;;;14.65;;
59105;SDS011;44891;50.204;8.132;2023-10-19T01:14:36;26.35;;;15.60;;
59105;SDS011;44891;50.204;8.132;2023-10-19T01:18:39;25.75;;;15.70;;
59105;SDS011;44891;50.204;8.132;2023-10-19T01:22:51;25.45;;;15.70;;
59105;SDS011;44891;50.204;8.132;2023-10-19T01:27:21;21.90;;;14.25;;
59105;SDS011;44891;50.204;8.132;2023-10-19T01:31:23;15.20;;;10.90;;
59105;SDS011;44891;50.204;8.132;2023-10-19T01:35:31;19.23;;;12.73;;
59105;SDS011;44891;50.204;8.132;2023-10-19T01:39:49;23.40;;;13.95;;
59105;SDS011;44891;50.204;8.132;2023-10-19T01:43:53;22.58;;;13.48;;
59105;SDS011;44891;50.204;8.132;2023-10-19T01:47:55;21.45;;;13.23;;
59105;SDS011;44891;50.204;8.132;2023-10-19T01:52:00;22.67;;;13.63;;
59105;SDS011;44891;50.204;8.132;2023-10-19T01:56:03;19.83;;;12.90;;
59105;SDS011;44891;50.204;8.132;2023-10-19T02:00:06;21.10;;;13.10;;
59105;SDS011;44891;50.204;8.132;2023-10-19T02:04:13;24.67;;;15.13;;
59105;SDS011;44891;50.204;8.132;2023-10-19T02:08:15;24.08;;;14.45;;
59105;SDS011;44891;50.204;8.132;2023-10-19T02:12:19;24.42;;;15.35;;
59105;SDS011;44891;50.204;8.132;2023-10-19T02:16:23;26.63;;;14.80;;
59105;SDS011;44891;50.204;8.132;2023-10-19T02:20:26;22.35;;;14.07;;
59105;SDS011;44891;50.204;8.132;2023-10-19T02:24:29;25.60;;;15.52;;
59105;SDS011;44891;50.204;8.132;2023-10-19T02:28:33;26.55;;;15.77;;
59105;SDS011;44891;50.204;8.132;2023-10-19T02:32:39;25.35;;;15.05;;
59105;SDS011;44891;50.204;8.132;2023-10-19T02:36:44;28.35;;;16.75;;
59105;SDS011;44891;50.204;8.132;2023-10-19T02:40:47;28.80;;;16.05;;
59105;SDS011;44891;50.204;8.132;2023-10-19T02:44:51;28.30;;;15.25;;
59105;SDS011;44891;50.204;8.132;2023-10-19T02:48:53;33.85;;;17.38;;
59105;SDS011;44891;50.204;8.132;2023-10-19T02:52:56;27.98;;;16.30;;
59105;SDS011;44891;50.204;8.132;2023-10-19T02:56:58;28.80;;;15.70;;
59105;SDS011;44891;50.204;8.132;2023-10-19T03:01:02;33.03;;;16.88;;
59105;SDS011;44891;50.204;8.132;2023-10-19T03:05:12;30.88;;;16.65;;
59105;SDS011;44891;50.204;8.132;2023-10-19T03:09:15;25.65;;;16.00;;
59105;SDS011;44891;50.204;8.132;2023-10-19T03:13:23;28.73;;;15.43;;
59105;SDS011;44891;50.204;8.132;2023-10-19T03:17:27;28.42;;;16.70;;
59105;SDS011;44891;50.204;8.132;2023-10-19T03:21:31;29.05;;;16.85;;
59105;SDS011;44891;50.204;8.132;2023-10-19T03:25:42;30.17;;;17.85;;
59105;SDS011;44891;50.204;8.132;2023-10-19T03:30:19;31.45;;;16.83;;
59105;SDS011;44891;50.204;8.132;2023-10-19T03:34:24;28.35;;;16.35;;
59105;SDS011;44891;50.204;8.132;2023-10-19T03:38:27;27.20;;;15.98;;
59105;SDS011;44891;50.204;8.132;2023-10-19T03:42:35;28.20;;;15.82;;
59105;SDS011;44891;50.204;8.132;2023-10-19T03:46:41;27.40;;;16.08;;
59105;SDS011;44891;50.204;8.132;2023-10-19T03:50:54;22.95;;;14.95;;
59105;SDS011;44891;50.204;8.132;2023-10-19T03:54:57;25.95;;;15.23;;
59105;SDS011;44891;50.204;8.132;2023-10-19T03:58:59;24.38;;;14.88;;
59105;SDS011;44891;50.204;8.132;2023-10-19T04:03:02;34.97;;;18.48;;
59105;SDS011;44891;50.204;8.132;2023-10-19T04:07:06;29.55;;;17.33;;
59105;SDS011;44891;50.204;8.132;2023-10-19T04:11:20;30.83;;;17.52;;
59105;SDS011;44891;50.204;8.132;2023-10-19T04:15:33;30.25;;;16.17;;
59105;SDS011;44891;50.204;8.132;2023-10-19T04:19:36;28.88;;;16.90;;
59105;SDS011;44891;50.204;8.132;2023-10-19T04:23:39;36.00;;;18.65;;
59105;SDS011;44891;50.204;8.132;2023-10-19T04:27:42;34.90;;;20.75;;
59105;SDS011;44891;50.204;8.132;2023-10-19T04:31:44;30.95;;;19.30;;
59105;SDS011;44891;50.204;8.132;2023-10-19T04:35:51;33.45;;;19.67;;
59105;SDS011;44891;50.204;8.132;2023-10-19T04:39:58;26.55;;;16.05;;
59105;SDS011;44891;50.204;8.132;2023-10-19T04:44:01;27.08;;;16.17;;
59105;SDS011;44891;50.204;8.132;2023-10-19T04:48:04;26.88;;;16.25;;
59105;SDS011;44891;50.204;8.132;2023-10-19T04:52:06;26.45;;;16.58;;
59105;SDS011;44891;50.204;8.132;2023-10-19T04:56:10;22.67;;;14.55;;
59105;SDS011;44891;50.204;8.132;2023-10-19T05:00:13;22.08;;;14.13;;
59105;SDS011;44891;50.204;8.132;2023-10-19T05:08:18;22.98;;;13.50;;
59105;SDS011;44891;50.204;8.132;2023-10-19T05:12:22;18.33;;;12.35;;
59105;SDS011;44891;50.204;8.132;2023-10-19T05:16:24;21.05;;;13.40;;
59105;SDS011;44891;50.204;8.132;2023-10-19T05:20:27;18.40;;;13.63;;
59105;SDS011;44891;50.204;8.132;2023-10-19T05:24:29;20.45;;;14.20;;
59105;SDS011;44891;50.204;8.132;2023-10-19T05:28:32;21.30;;;13.98;;
59105;SDS011;44891;50.204;8.132;2023-10-19T05:32:34;22.83;;;15.20;;
59105;SDS011;44891;50.204;8.132;2023-10-19T05:36:36;21.73;;;14.02;;
59105;SDS011;44891;50.204;8.132;2023-10-19T05:40:40;21.10;;;14.30;;
59105;SDS011;44891;50.204;8.132;2023-10-19T05:44:45;20.33;;;13.70;;
59105;SDS011;44891;50.204;8.132;2023-10-19T05:48:47;22.55;;;14.98;;
59105;SDS011;44891;50.204;8.132;2023-10-19T05:52:49;27.85;;;15.10;;
59105;SDS011;44891;50.204;8.132;2023-10-19T05:56:52;17.35;;;12.18;;
59105;SDS011;44891;50.204;8.132;2023-10-19T06:00:59;17.40;;;11.98;;
59105;SDS011;44891;50.204;8.132;2023-10-19T06:05:01;16.38;;;11.73;;
59105;SDS011;44891;50.204;8.132;2023-10-19T06:09:05;23.40;;;14.63;;
59105;SDS011;44891;50.204;8.132;2023-10-19T06:13:09;22.10;;;13.32;;
59105;SDS011;44891;50.204;8.132;2023-10-19T06:17:12;21.33;;;13.95;;
59105;SDS011;44891;50.204;8.132;2023-10-19T06:21:19;18.42;;;12.73;;
59105;SDS011;44891;50.204;8.132;2023-10-19T06:25:22;22.20;;;13.60;;
59105;SDS011;44891;50.204;8.132;2023-10-19T06:29:25;27.10;;;15.65;;
59105;SDS011;44891;50.204;8.132;2023-10-19T06:33:30;33.78;;;17.40;;
59105;SDS011;44891;50.204;8.132;2023-10-19T06:37:33;26.38;;;15.25;;
59105;SDS011;44891;50.204;8.132;2023-10-19T06:41:35;26.73;;;16.38;;
59105;SDS011;44891;50.204;8.132;2023-10-19T06:45:39;27.95;;;17.00;;
59105;SDS011;44891;50.204;8.132;2023-10-19T06:49:42;28.38;;;17.05;;
59105;SDS011;44891;50.204;8.132;2023-10-19T06:53:45;30.38;;;17.45;;
59105;SDS011;44891;50.204;8.132;2023-10-19T06:57:47;30.88;;;17.30;;
59105;SDS011;44891;50.204;8.132;2023-10-19T07:01:50;32.92;;;17.10;;
59105;SDS011;44891;50.204;8.132;2023-10-19T07:05:54;34.80;;;17.15;;
59105;SDS011;44891;50.204;8.132;2023-10-19T07:09:57;28.38;;;16.52;;
59105;SDS011;44891;50.204;8.132;2023-10-19T07:13:59;29.60;;;17.00;;
59105;SDS011;44891;50.204;8.132;2023-10-19T07:18:01;30.33;;;17.35;;
59105;SDS011;44891;50.204;8.132;2023-10-19T07:22:05;29.17;;;18.33;;
59105;SDS011;44891;50.204;8.132;2023-10-19T07:26:10;32.13;;;17.85;;
59105;SDS011;44891;50.204;8.132;2023-10-19T07:30:14;25.17;;;16.50;;
59105;SDS011;44891;50.204;8.132;2023-10-19T07:34:21;24.83;;;16.38;;
59105;SDS011;44891;50.204;8.132;2023-10-19T07:38:28;23.95;;;15.65;;
59105;SDS011;44891;50.204;8.132;2023-10-19T07:42:33;25.55;;;15.70;;
59105;SDS011;44891;50.204;8.132;2023-10-19T07:46:37;25.67;;;15.48;;
59105;SDS011;44891;50.204;8.132;2023-10-19T07:50:39;21.52;;;15.18;;
59105;SDS011;44891;50.204;8.132;2023-10-19T07:54:44;23.23;;;14.80;;
59105;SDS011;44891;50.204;8.132;2023-10-19T07:58:46;20.38;;;13.77;;
59105;SDS011;44891;50.204;8.132;2023-10-19T08:02:48;19.20;;;13.63;;
59105;SDS011;44891;50.204;8.132;2023-10-19T08:06:52;18.52;;;13.25;;
59105;SDS011;44891;50.204;8.132;2023-10-19T08:10:55;18.55;;;13.05;;
59105;SDS011;44891;50.204;8.132;2023-10-19T08:14:57;22.50;;;14.07;;
59105;SDS011;44891;50.204;8.132;2023-10-19T08:19:00;17.80;;;12.55;;
59105;SDS011;44891;50.204;8.132;2023-10-19T08:23:02;18.42;;;11.48;;
59105;SDS011;44891;50.204;8.132;2023-10-19T08:27:07;18.27;;;12.18;;
59105;SDS011;44891;50.204;8.132;2023-10-19T08:31:11;14.35;;;10.10;;
59105;SDS011;44891;50.204;8.132;2023-10-19T08:35:15;13.68;;;9.93;;
59105;SDS011;44891;50.204;8.132;2023-10-19T08:39:18;14.18;;;9.63;;
59105;SDS011;44891;50.204;8.132;2023-10-19T08:43:22;10.80;;;8.40;;
59105;SDS011;44891;50.204;8.132;2023-10-19T08:47:26;10.38;;;8.20;;
59105;SDS011;44891;50.204;8.132;2023-10-19T08:51:28;8.95;;;7.28;;
59105;SDS011;44891;50.204;8.132;2023-10-19T08:55:31;9.70;;;8.18;;
59105;SDS011;44891;50.204;8.132;2023-10-19T08:59:36;12.38;;;8.77;;
59105;SDS011;44891;50.204;8.132;2023-10-19T09:03:38;10.70;;;8.00;;
59105;SDS011;44891;50.204;8.132;2023-10-19T09:07:41;9.20;;;6.95;;
59105;SDS011;44891;50.204;8.132;2023-10-19T09:11:43;8.48;;;6.00;;
59105;SDS011;44891;50.204;8.132;2023-10-19T09:15:48;8.27;;;5.90;;
59105;SDS011;44891;50.204;8.132;2023-10-19T09:19:50;8.48;;;5.80;;
59105;SDS011;44891;50.204;8.132;2023-10-19T09:23:55;9.70;;;5.32;;
59105;SDS011;44891;50.204;8.132;2023-10-19T09:27:58;8.52;;;6.20;;
59105;SDS011;44891;50.204;8.132;2023-10-19T09:32:01;9.63;;;5.25;;
59105;SDS011;44891;50.204;8.132;2023-10-19T09:36:06;5.95;;;4.22;;
59105;SDS011;44891;50.204;8.132;2023-10-19T09:40:14;6.80;;;4.57;;
59105;SDS011;44891;50.204;8.132;2023-10-19T09:44:16;6.53;;;4.22;;
59105;SDS011;44891;50.204;8.132;2023-10-19T09:48:25;7.68;;;4.70;;
59105;SDS011;44891;50.204;8.132;2023-10-19T09:52:27;6.50;;;4.97;;
59105;SDS011;44891;50.204;8.132;2023-10-19T09:56:34;6.85;;;4.88;;
59105;SDS011;44891;50.204;8.132;2023-10-19T10:00:38;10.45;;;4.53;;
59105;SDS011;44891;50.204;8.132;2023-10-19T10:04:44;10.55;;;5.22;;
59105;SDS011;44891;50.204;8.132;2023-10-19T10:08:47;8.65;;;4.80;;
59105;SDS011;44891;50.204;8.132;2023-10-19T10:12:50;7.78;;;5.28;;
59105;SDS011;44891;50.204;8.132;2023-10-19T10:16:59;8.43;;;5.47;;
59105;SDS011;44891;50.204;8.132;2023-10-19T10:21:07;8.40;;;5.35;;
59105;SDS011;44891;50.204;8.132;2023-10-19T10:25:24;18.38;;;7.10;;
59105;SDS011;44891;50.204;8.132;2023-10-19T10:29:28;9.77;;;6.30;;
59105;SDS011;44891;50.204;8.132;2023-10-19T10:33:42;10.77;;;7.90;;
59105;SDS011;44891;50.204;8.132;2023-10-19T10:37:54;9.48;;;7.75;;
59105;SDS011;44891;50.204;8.132;2023-10-19T10:41:56;8.73;;;7.13;;
59105;SDS011;44891;50.204;8.132;2023-10-19T10:46:02;10.68;;;7.50;;
59105;SDS011;44891;50.204;8.132;2023-10-19T10:50:06;9.38;;;7.10;;
59105;SDS011;44891;50.204;8.132;2023-10-19T10:54:11;9.13;;;6.90;;
59105;SDS011;44891;50.204;8.132;2023-10-19T10:58:14;10.18;;;8.50;;
59105;SDS011;44891;50.204;8.132;2023-10-19T11:02:17;13.80;;;9.77;;
59105;SDS011;44891;50.204;8.132;2023-10-19T11:06:20;13.68;;;10.20;;
59105;SDS011;44891;50.204;8.132;2023-10-19T11:10:29;13.80;;;10.30;;
59105;SDS011;44891;50.204;8.132;2023-10-19T11:14:32;15.35;;;10.90;;
59105;SDS011;44891;50.204;8.132;2023-10-19T11:18:35;17.23;;;11.85;;
59105;SDS011;44891;50.204;8.132;2023-10-19T11:22:38;20.92;;;13.27;;
59105;SDS011;44891;50.204;8.132;2023-10-19T11:26:51;19.13;;;12.90;;
59105;SDS011;44891;50.204;8.132;2023-10-19T11:30:53;16.77;;;12.68;;
59105;SDS011;44891;50.204;8.132;2023-10-19T11:34:55;20.08;;;13.80;;
59105;SDS011;44891;50.204;8.132;2023-10-19T11:38:58;21.65;;;14.52;;
59105;SDS011;44891;50.204;8.132;2023-10-19T11:43:01;18.75;;;12.80;;
59105;SDS011;44891;50.204;8.132;2023-10-19T11:47:04;17.58;;;12.25;;
59105;SDS011;44891;50.204;8.132;2023-10-19T11:51:06;16.65;;;11.13;;
59105;SDS011;44891;50.204;8.132;2023-10-19T11:55:09;18.15;;;11.27;;
59105;SDS011;44891;50.204;8.132;2023-10-19T11:59:15;19.75;;;12.68;;
59105;SDS011;44891;50.204;8.132;2023-10-19T12:03:18;17.90;;;11.20;;
59105;SDS011;44891;50.204;8.132;2023-10-19T12:07:20;16.60;;;10.70;;
59105;SDS011;44891;50.204;8.132;2023-10-19T12:11:22;15.95;;;10.23;;
59105;SDS011;44891;50.204;8.132;2023-10-19T12:15:26;14.30;;;10.18;;
59105;SDS011;44891;50.204;8.132;2023-10-19T12:19:29;13.25;;;10.15;;
59105;SDS011;44891;50.204;8.132;2023-10-19T12:23:31;17.15;;;10.23;;
59105;SDS011;44891;50.204;8.132;2023-10-19T12:27:33;12.10;;;9.07;;
59105;SDS011;44891;50.204;8.132;2023-10-19T12:31:40;10.70;;;8.52;;
59105;SDS011;44891;50.204;8.132;2023-10-19T12:35:42;11.60;;;7.70;;
59105;SDS011;44891;50.204;8.132;2023-10-19T12:39:46;12.63;;;8.15;;
59105;SDS011;44891;50.204;8.132;2023-10-19T12:43:49;12.25;;;8.38;;
59105;SDS011;44891;50.204;8.132;2023-10-19T12:47:54;11.25;;;8.70;;
59105;SDS011;44891;50.204;8.132;2023-10-19T12:51:56;12.38;;;8.32;;
59105;SDS011;44891;50.204;8.132;2023-10-19T12:55:58;14.30;;;8.70;;
59105;SDS011;44891;50.204;8.132;2023-10-19T13:00:01;10.07;;;8.13;;
59105;SDS011;44891;50.204;8.132;2023-10-19T13:04:25;11.85;;;7.78;;
59105;SDS011;44891;50.204;8.132;2023-10-19T13:08:30;12.52;;;8.20;;
59105;SDS011;44891;50.204;8.132;2023-10-19T13:12:32;12.65;;;7.90;;
59105;SDS011;44891;50.204;8.132;2023-10-19T13:16:35;12.63;;;8.68;;
59105;SDS011;44891;50.204;8.132;2023-10-19T13:20:38;14.68;;;9.65;;
59105;SDS011;44891;50.204;8.132;2023-10-19T13:24:44;14.43;;;10.75;;
59105;SDS011;44891;50.204;8.132;2023-10-19T13:28:46;16.85;;;11.82;;
59105;SDS011;44891;50.204;8.132;2023-10-19T13:32:49;16.50;;;12.82;;
59105;SDS011;44891;50.204;8.132;2023-10-19T13:36:53;14.93;;;11.85;;
59105;SDS011;44891;50.204;8.132;2023-10-19T13:40:56;17.17;;;12.35;;
59105;SDS011;44891;50.204;8.132;2023-10-19T13:44:58;18.83;;;13.18;;
59105;SDS011;44891;50.204;8.132;2023-10-19T13:49:00;21.83;;;15.10;;
59105;SDS011;44891;50.204;8.132;2023-10-19T13:53:07;20.88;;;14.68;;
59105;SDS011;44891;50.204;8.132;2023-10-19T13:57:10;20.38;;;14.77;;
59105;SDS011;44891;50.204;8.132;2023-10-19T14:01:12;22.52;;;15.23;;
59105;SDS011;44891;50.204;8.132;2023-10-19T14:05:14;24.50;;;15.80;;
59105;SDS011;44891;50.204;8.132;2023-10-19T14:09:18;26.15;;;18.42;;
59105;SDS011;44891;50.204;8.132;2023-10-19T14:13:20;26.58;;;17.83;;
59105;SDS011;44891;50.204;8.132;2023-10-19T14:17:22;25.60;;;17.30;;
59105;SDS011;44891;50.204;8.132;2023-10-19T14:21:25;30.95;;;19.58;;
59105;SDS011;44891;50.204;8.132;2023-10-19T14:25:30;32.72;;;20.67;;
59105;SDS011;44891;50.204;8.132;2023-10-19T14:29:32;39.08;;;23.30;;
59105;SDS011;44891;50.204;8.132;2023-10-19T14:33:34;42.78;;;24.23;;
59105;SDS011;44891;50.204;8.132;2023-10-19T14:37:37;39.03;;;23.38;;
59105;SDS011;44891;50.204;8.132;2023-10-19T14:41:42;44.95;;;25.15;;
59105;SDS011;44891;50.204;8.132;2023-10-19T14:45:44;39.00;;;23.15;;
59105;SDS011;44891;50.204;8.132;2023-10-19T14:49:46;42.25;;;25.30;;
59105;SDS011;44891;50.204;8.132;2023-10-19T14:53:48;41.03;;;24.95;;
59105;SDS011;44891;50.204;8.132;2023-10-19T14:57:52;41.20;;;24.70;;
59105;SDS011;44891;50.204;8.132;2023-10-19T15:01:55;35.40;;;22.20;;
59105;SDS011;44891;50.204;8.132;2023-10-19T15:05:57;34.10;;;22.25;;
59105;SDS011;44891;50.204;8.132;2023-10-19T15:10:01;27.80;;;19.75;;
59105;SDS011;44891;50.204;8.132;2023-10-19T15:14:06;27.13;;;18.55;;
59105;SDS011;44891;50.204;8.132;2023-10-19T15:18:08;23.88;;;16.67;;
59105;SDS011;44891;50.204;8.132;2023-10-19T15:22:10;26.55;;;17.67;;
59105;SDS011;44891;50.204;8.132;2023-10-19T15:26:16;25.33;;;17.60;;
59105;SDS011;44891;50.204;8.132;2023-10-19T15:30:20;21.10;;;15.02;;
59105;SDS011;44891;50.204;8.132;2023-10-19T15:34:23;22.98;;;15.85;;
59105;SDS011;44891;50.204;8.132;2023-10-19T15:38:26;18.45;;;14.10;;
59105;SDS011;44891;50.204;8.132;2023-10-19T15:42:28;20.33;;;14.90;;
59105;SDS011;44891;50.204;8.132;2023-10-19T15:46:31;19.98;;;14.93;;
59105;SDS011;44891;50.204;8.132;2023-10-19T15:50:34;17.70;;;13.75;;
59105;SDS011;44891;50.204;8.132;2023-10-19T15:54:37;18.10;;;13.60;;
59105;SDS011;44891;50.204;8.132;2023-10-19T15:58:39;17.88;;;13.13;;
59105;SDS011;44891;50.204;8.132;2023-10-19T16:02:43;18.73;;;13.85;;
59105;SDS011;44891;50.204;8.132;2023-10-19T16:06:45;17.35;;;13.20;;
59105;SDS011;44891;50.204;8.132;2023-10-19T16:10:47;19.65;;;14.70;;
59105;SDS011;44891;50.204;8.132;2023-10-19T16:14:52;20.38;;;14.90;;
59105;SDS011;44891;50.204;8.132;2023-10-19T16:18:55;19.75;;;15.77;;
59105;SDS011;44891;50.204;8.132;2023-10-19T16:22:57;19.45;;;15.55;;
59105;SDS011;44891;50.204;8.132;2023-10-19T16:27:00;21.30;;;15.48;;
59105;SDS011;44891;50.204;8.132;2023-10-19T16:31:02;22.60;;;16.58;;
59105;SDS011;44891;50.204;8.132;2023-10-19T16:35:07;21.85;;;15.90;;
59105;SDS011;44891;50.204;8.132;2023-10-19T16:39:10;23.50;;;16.88;;
59105;SDS011;44891;50.204;8.132;2023-10-19T16:43:16;29.55;;;20.10;;
59105;SDS011;44891;50.204;8.132;2023-10-19T16:47:18;29.15;;;19.98;;
59105;SDS011;44891;50.204;8.132;2023-10-19T16:51:24;28.58;;;19.92;;
59105;SDS011;44891;50.204;8.132;2023-10-19T16:55:26;28.10;;;20.10;;
59105;SDS011;44891;50.204;8.132;2023-10-19T16:59:28;27.40;;;19.77;;
59105;SDS011;44891;50.204;8.132;2023-10-19T17:03:31;30.95;;;20.80;;
59105;SDS011;44891;50.204;8.132;2023-10-19T17:07:35;24.90;;;17.10;;
59105;SDS011;44891;50.204;8.132;2023-10-19T17:11:38;20.48;;;15.55;;
59105;SDS011;44891;50.204;8.132;2023-10-19T17:15:40;22.98;;;15.10;;
59105;SDS011;44891;50.204;8.132;2023-10-19T17:19:44;20.70;;;14.98;;
59105;SDS011;44891;50.204;8.132;2023-10-19T17:23:48;17.42;;;13.80;;
59105;SDS011;44891;50.204;8.132;2023-10-19T17:27:50;18.85;;;14.02;;
59105;SDS011;44891;50.204;8.132;2023-10-19T17:31:52;23.58;;;17.02;;
59105;SDS011;44891;50.204;8.132;2023-10-19T17:35:54;19.48;;;14.82;;
59105;SDS011;44891;50.204;8.132;2023-10-19T17:39:57;26.05;;;18.13;;
59105;SDS011;44891;50.204;8.132;2023-10-19T17:44:00;25.95;;;18.52;;
59105;SDS011;44891;50.204;8.132;2023-10-19T17:48:04;26.23;;;17.70;;
59105;SDS011;44891;50.204;8.132;2023-10-19T17:52:08;36.20;;;22.10;;
59105;SDS011;44891;50.204;8.132;2023-10-19T17:56:12;38.97;;;23.45;;
59105;SDS011;44891;50.204;8.132;2023-10-19T18:00:15;38.83;;;23.65;;
59105;SDS011;44891;50.204;8.132;2023-10-19T18:04:18;41.00;;;26.35;;
59105;SDS011;44891;50.204;8.132;2023-10-19T18:08:20;53.28;;;28.25;;
59105;SDS011;44891;50.204;8.132;2023-10-19T18:12:24;46.33;;;27.75;;
59105;SDS011;44891;50.204;8.132;2023-10-19T18:16:26;43.88;;;27.45;;
59105;SDS011;44891;50.204;8.132;2023-10-19T18:20:29;45.67;;;28.50;;
59105;SDS011;44891;50.204;8.132;2023-10-19T18:24:31;47.33;;;28.02;;
59105;SDS011;44891;50.204;8.132;2023-10-19T18:28:35;48.58;;;30.13;;
59105;SDS011;44891;50.204;8.132;2023-10-19T18:32:38;54.55;;;31.05;;
59105;SDS011;44891;50.204;8.132;2023-10-19T18:36:41;52.28;;;30.42;;
59105;SDS011;44891;50.204;8.132;2023-10-19T18:40:52;58.20;;;31.52;;
59105;SDS011;44891;50.204;8.132;2023-10-19T18:44:57;43.38;;;27.00;;
59105;SDS011;44891;50.204;8.132;2023-10-19T18:48:59;38.15;;;25.67;;
59105;SDS011;44891;50.204;8.132;2023-10-19T18:53:01;44.63;;;27.30;;
59105;SDS011;44891;50.204;8.132;2023-10-19T18:57:04;38.83;;;24.40;;
59105;SDS011;44891;50.204;8.132;2023-10-19T19:01:08;37.50;;;24.63;;
59105;SDS011;44891;50.204;8.132;2023-10-19T19:05:11;36.67;;;24.10;;
59105;SDS011;44891;50.204;8.132;2023-10-19T19:09:13;35.90;;;23.45;;
59105;SDS011;44891;50.204;8.132;2023-10-19T19:13:17;40.53;;;25.52;;
59105;SDS011;44891;50.204;8.132;2023-10-19T19:17:21;41.88;;;28.27;;
59105;SDS011;44891;50.204;8.132;2023-10-19T19:21:25;38.72;;;24.73;;
59105;SDS011;44891;50.204;8.132;2023-10-19T19:25:27;43.92;;;28.15;;
59105;SDS011;44891;50.204;8.132;2023-10-19T19:29:29;39.70;;;25.45;;
59105;SDS011;44891;50.204;8.132;2023-10-19T19:33:32;33.20;;;22.85;;
59105;SDS011;44891;50.204;8.132;2023-10-19T19:37:34;31.50;;;21.10;;
59105;SDS011;44891;50.204;8.132;2023-10-19T19:41:37;36.80;;;22.92;;
59105;SDS011;44891;50.204;8.132;2023-10-19T19:45:40;34.25;;;23.00;;
59105;SDS011;44891;50.204;8.132;2023-10-19T19:49:44;35.40;;;22.92;;
59105;SDS011;44891;50.204;8.132;2023-10-19T19:53:47;38.60;;;22.92;;
59105;SDS011;44891;50.204;8.132;2023-10-19T19:57:50;35.67;;;22.50;;
59105;SDS011;44891;50.204;8.132;2023-10-19T20:01:52;41.38;;;25.08;;
59105;SDS011;44891;50.204;8.132;2023-10-19T20:05:59;36.00;;;23.70;;
59105;SDS011;44891;50.204;8.132;2023-10-19T20:10:01;37.60;;;23.70;;
59105;SDS011;44891;50.204;8.132;2023-10-19T20:14:03;41.05;;;25.65;;
59105;SDS011;44891;50.204;8.132;2023-10-19T20:18:05;44.60;;;27.25;;
59105;SDS011;44891;50.204;8.132;2023-10-19T20:22:09;49.28;;;29.05;;
59105;SDS011;44891;50.204;8.132;2023-10-19T20:26:12;48.70;;;29.13;;
59105;SDS011;44891;50.204;8.132;2023-10-19T20:30:16;43.10;;;27.48;;
59105;SDS011;44891;50.204;8.132;2023-10-19T20:34:18;42.03;;;26.15;;
59105;SDS011;44891;50.204;8.132;2023-10-19T20:38:22;45.13;;;26.35;;
59105;SDS011;44891;50.204;8.132;2023-10-19T20:42:24;37.55;;;24.30;;
59105;SDS011;44891;50.204;8.132;2023-10-19T20:46:26;41.88;;;24.77;;
59105;SDS011;44891;50.204;8.132;2023-10-19T20:50:28;37.38;;;23.80;;
59105;SDS011;44891;50.204;8.132;2023-10-19T20:54:31;37.35;;;23.95;;
59105;SDS011;44891;50.204;8.132;2023-10-19T20:58:33;40.42;;;24.58;;
59105;SDS011;44891;50.204;8.132;2023-10-19T21:02:36;35.83;;;22.02;;
59105;SDS011;44891;50.204;8.132;2023-10-19T21:06:38;34.47;;;22.08;;
59105;SDS011;44891;50.204;8.132;2023-10-19T21:10:41;33.83;;;21.58;;
59105;SDS011;44891;50.204;8.132;2023-10-19T21:14:43;33.83;;;21.40;;
59105;SDS011;44891;50.204;8.132;2023-10-19T21:18:45;32.38;;;22.60;;
59105;SDS011;44891;50.204;8.132;2023-10-19T21:22:48;34.58;;;22.27;;
59105;SDS011;44891;50.204;8.132;2023-10-19T21:26:52;33.63;;;22.55;;
59105;SDS011;44891;50.204;8.132;2023-10-19T21:30:54;32.22;;;22.00;;
59105;SDS011;44891;50.204;8.132;2023-10-19T21:34:56;30.70;;;21.88;;
59105;SDS011;44891;50.204;8.132;2023-10-19T21:38:59;30.98;;;22.15;;
59105;SDS011;44891;50.204;8.132;2023-10-19T21:43:03;23.75;;;18.30;;
59105;SDS011;44891;50.204;8.132;2023-10-19T21:47:05;21.33;;;15.52;;
59105;SDS011;44891;50.204;8.132;2023-10-19T21:51:08;15.93;;;12.85;;
59105;SDS011;44891;50.204;8.132;2023-10-19T21:55:10;15.73;;;12.00;;
59105;SDS011;44891;50.204;8.132;2023-10-19T21:59:13;17.48;;;13.35;;
59105;SDS011;44891;50.204;8.132;2023-10-19T22:03:16;15.05;;;11.98;;
59105;SDS011;44891;50.204;8.132;2023-10-19T22:07:18;9.98;;;7.88;;
59105;SDS011;44891;50.204;8.132;2023-10-19T22:11:20;5.90;;;5.20;;
59105;SDS011;44891;50.204;8.132;2023-10-19T22:15:24;6.20;;;5.60;;
59105;SDS011;44891;50.204;8.132;2023-10-19T22:19:29;6.22;;;5.35;;
59105;SDS011;44891;50.204;8.132;2023-10-19T22:23:32;5.80;;;5.28;;
59105;SDS011;44891;50.204;8.132;2023-10-19T22:27:34;5.15;;;4.65;;
59105;SDS011;44891;50.204;8.132;2023-10-19T22:31:37;5.88;;;5.05;;
59105;SDS011;44891;50.204;8.132;2023-10-19T22:35:40;5.22;;;4.50;;
59105;SDS011;44891;50.204;8.132;2023-10-19T22:39:42;5.32;;;4.82;;
59105;SDS011;44891;50.204;8.132;2023-10-19T22:43:44;6.75;;;6.05;;
59105;SDS011;44891;50.204;8.132;2023-10-19T22:47:48;8.43;;;6.57;;
59105;SDS011;44891;50.204;8.132;2023-10-19T22:51:50;11.40;;;9.02;;
59105;SDS011;44891;50.204;8.132;2023-10-19T22:55:52;15.05;;;11.57;;
59105;SDS011;44891;50.204;8.132;2023-10-19T22:59:55;14.30;;;11.40;;
59105;SDS011;44891;50.204;8.132;2023-10-19T23:04:00;13.68;;;10.27;;
59105;SDS011;44891;50.204;8.132;2023-10-19T23:08:02;16.30;;;12.77;;
59105;SDS011;44891;50.204;8.132;2023-10-19T23:12:04;17.63;;;12.88;;
59105;SDS011;44891;50.204;8.132;2023-10-19T23:16:12;17.00;;;13.18;;
59105;SDS011;44891;50.204;8.132;2023-10-19T23:20:17;23.30;;;14.88;;
59105;SDS011;44891;50.204;8.132;2023-10-19T23:24:27;18.30;;;13.93;;
59105;SDS011;44891;50.204;8.132;2023-10-19T23:28:31;22.90;;;15.23;;
59105;SDS011;44891;50.204;8.132;2023-10-19T23:32:34;18.10;;;13.68;;
59105;SDS011;44891;50.204;8.132;2023-10-19T23:36:40;18.02;;;12.90;;
59105;SDS011;44891;50.204;8.132;2023-10-19T23:40:43;17.15;;;13.18;;
59105;SDS011;44891;50.204;8.132;2023-10-19T23:44:45;16.80;;;12.70;;
59105;SDS011;44891;50.204;8.132;2023-10-19T23:48:47;18.80;;;13.10;;
59105;SDS011;44891;50.204;8.132;2023-10-19T23:52:51;18.05;;;13.70;;
59105;SDS011;44891;50.204;8.132;2023-10-19T23:56:54;18.40;;;13.82;;
